Time;durP1;ratioP1;P1;durP2;ratioP2;P2;SDS_P1;SDS_P2;PMS_P1;PMS_P2;Temp;Humidity;BMP_temperature;BMP_pressure;BME280_temperature;BME280_humidity;BME280_pressure;Samples;Min_cycle;Max_cycle;Signal;HPM_P1;HPM_P2
2020/12/22 00:01:35;;;;;;;24.58;11.02;;;;;;;-3.62;87.70;101134.28;3510635;28;20864;-58
2020/12/22 00:03:17;;;;;;;21.65;9.80;;;;;;;-3.66;87.74;101133.13;3508752;28;20044;-58
2020/12/22 00:04:58;;;;;;;13.95;7.10;;;;;;;-3.68;87.99;101136.25;3505975;28;20544;-58
2020/12/22 00:06:40;;;;;;;23.35;10.13;;;;;;;-3.69;88.46;101131.94;3510318;28;20044;-57
2020/12/22 00:08:21;;;;;;;18.85;9.20;;;;;;;-3.71;88.51;101131.78;3508699;28;20066;-58
2020/12/22 00:10:05;;;;;;;24.95;10.80;;;;;;;-3.70;88.36;101132.69;3510468;28;20055;-58
2020/12/22 00:11:46;;;;;;;26.40;10.57;;;;;;;-3.71;88.56;101141.00;3508449;28;20101;-58
2020/12/22 00:13:28;;;;;;;18.95;7.95;;;;;;;-3.73;88.22;101130.72;3508688;28;20052;-40
2020/12/22 00:15:10;;;;;;;31.13;11.23;;;;;;;-3.74;88.40;101133.16;3511275;28;20040;-40
2020/12/22 00:16:52;;;;;;;28.48;10.85;;;;;;;-3.72;88.86;101135.06;3506815;28;20048;-40
2020/12/22 00:18:33;;;;;;;18.58;8.50;;;;;;;-3.68;89.10;101134.59;3509035;28;20173;-40
2020/12/22 00:20:18;;;;;;;28.50;10.80;;;;;;;-3.66;88.32;101130.59;3510842;28;20101;-40
2020/12/22 00:21:59;;;;;;;;;;;;;;;-3.66;88.30;101133.13;3507874;28;20500;-40
2020/12/22 00:23:40;;;;;;;;;;;;;;;-3.65;88.25;101128.94;3511394;28;19928;-40
2020/12/22 00:25:22;;;;;;;;;;;;;;;-3.65;88.11;101126.41;3510167;28;20410;-40
2020/12/22 00:27:05;;;;;;;;;;;;;;;-3.65;88.13;101126.41;3508389;28;19983;-40
2020/12/22 00:28:46;;;;;;;;;;;;;;;-3.65;88.20;101118.78;3511608;28;19931;-58
2020/12/22 00:30:28;;;;;;;;;;;;;;;-3.65;87.86;101123.84;3509051;28;19967;-40
2020/12/22 00:32:09;;;;;;;;;;;;;;;-3.66;87.89;101111.91;3510146;28;19978;-40
2020/12/22 00:33:50;;;;;;;;;;;;;;;-3.65;87.99;101108.66;3511340;28;19969;-40
2020/12/22 00:35:32;;;;;;;;;;;;;;;-3.65;88.08;101104.44;3504891;28;19924;-40
2020/12/22 00:37:13;;;;;;;;;;;;;;;-3.62;88.46;101114.88;3510267;28;19924;-40
2020/12/22 00:38:55;;;;;;;;;;;;;;;-3.61;88.34;101106.50;3510129;28;19979;-40
2020/12/22 00:40:36;;;;;;;;;;;;;;;-3.61;88.30;101109.06;3508291;28;19931;-40
2020/12/22 00:42:18;;;;;;;;;;;;;;;-3.62;87.92;101101.34;3510034;28;19964;-40
2020/12/22 00:43:59;;;;;;;;;;;;;;;-3.64;87.92;101103.72;3508578;28;20352;-40
2020/12/22 00:45:40;;;;;;;;;;;;;;;-3.65;88.29;101099.38;3509327;28;20392;-41
2020/12/22 00:47:37;;;;;;;;;;;;;;;-3.65;88.27;101107.00;3509443;28;19930;-58
2020/12/22 00:49:18;;;;;;;;;;;;;;;-3.64;88.04;101105.34;3509233;28;19977;-57
2020/12/22 00:50:59;;;;;;;;;;;;;;;-3.65;88.29;101101.03;3508340;28;19960;-58
2020/12/22 00:52:40;;;;;;;;;;;;;;;-3.65;88.42;101098.50;3510160;28;19967;-58
2020/12/22 00:54:21;;;;;;;;;;;;;;;-3.62;88.49;101101.34;3508176;28;19971;-58
2020/12/22 00:56:03;;;;;;;;;;;;;;;-3.59;88.73;101104.13;3509882;28;19966;-58
2020/12/22 00:57:45;;;;;;;;;;;;;;;-3.56;88.92;101096.81;3509901;28;20018;-40
2020/12/22 00:59:26;;;;;;;;;;;;;;;-3.54;88.76;101104.56;3510053;28;19927;-41
2020/12/22 01:01:07;;;;;;;;;;;;;;;-3.54;88.50;101099.50;3511171;28;19924;-40
2020/12/22 01:02:48;;;;;;;;;;;;;;;-3.54;88.29;101096.97;3508762;28;20446;-58
2020/12/22 01:04:29;;;;;;;;;;;;;;;-3.57;87.81;101098.47;3507858;28;20002;-58
2020/12/22 01:06:11;;;;;;;;;;;;;;;-3.55;88.00;101105.31;3509808;28;19931;-57
2020/12/22 01:07:52;;;;;;;;;;;;;;;-3.54;88.02;101099.50;3503994;28;20393;-57
2020/12/22 01:09:33;;;;;;;;;;;;;;;-3.55;88.24;101096.06;3507842;28;19990;-58
2020/12/22 01:11:15;;;;;;;;;;;;;;;-3.57;87.77;101098.47;3509507;28;19973;-40
2020/12/22 01:12:56;;;;;;;;;;;;;;;-3.58;87.79;101099.19;3508720;28;20388;-40
2020/12/22 01:14:37;;;;;;;;;;;;;;;-3.56;88.15;101099.34;3511000;28;19923;-40
2020/12/22 01:16:19;;;;;;;;;;;;;;;-3.56;88.11;101094.28;3508917;28;19967;-58
2020/12/22 01:18:00;;;;;;;;;;;;;;;-3.53;88.25;101101.28;3509064;28;19924;-57
2020/12/22 01:19:41;;;;;;;;;;;;;;;-3.52;88.50;101097.97;3511024;28;19923;-41
2020/12/22 01:21:23;;;;;;;;;;;;;;;-3.50;88.55;101097.41;3507973;28;19970;-40
2020/12/22 01:23:04;;;;;;;;;;;;;;;-3.47;88.29;101094.22;3510272;28;20384;-40
2020/12/22 01:24:45;;;;;;;;;;;;;;;-3.48;88.19;101093.34;3509849;28;19939;-58
2020/12/22 01:26:27;;;;;;;;;;;;;;;-3.46;87.94;101103.66;3509840;28;19942;-58
2020/12/22 01:28:08;;;;;;;;;;;;;;;-3.47;87.98;101097.66;3510661;28;20418;-58
2020/12/22 01:29:50;;;;;;;;;;;;;;;-3.45;87.96;101095.25;3507457;28;19923;-40
2020/12/22 01:31:31;;;;;;;;;;;;;;;-3.46;87.84;101089.31;3505081;28;20567;-58
2020/12/22 01:33:12;;;;;;;;;;;;;;;-3.44;87.87;101087.78;3510741;28;19997;-57
2020/12/22 01:34:54;;;;;;;;;;;;;;;-3.44;87.60;101089.44;3507876;28;20035;-58
2020/12/22 01:36:35;;;;;;;;;;;;;;;-3.43;87.28;101088.69;3509744;28;19951;-58
2020/12/22 01:38:16;;;;;;;;;;;;;;;-3.43;87.61;101079.44;3508895;28;20060;-58
2020/12/22 01:39:57;;;;;;;;;;;;;;;-3.42;87.37;101075.25;3508424;28;19927;-57
2020/12/22 01:41:39;;;;;;;;;;;;;;;-3.42;87.43;101083.75;3510773;28;19931;-58
2020/12/22 01:43:21;;;;;;;;;;;;;;;-3.40;87.71;101082.25;3505764;28;19979;-58
2020/12/22 01:45:02;;;;;;;;;;;;;;;-3.40;87.36;101083.91;3508240;28;20392;-58
2020/12/22 01:46:44;;;;;;;;;;;;;;;-3.40;87.21;101086.44;3510575;28;19924;-58
2020/12/22 01:48:25;;;;;;;;;;;;;;;-3.40;86.96;101078.81;3508812;28;20342;-58
2020/12/22 01:50:06;;;;;;;;;;;;;;;-3.38;86.95;101087.47;3510162;28;19963;-58
2020/12/22 01:51:48;;;;;;;;;;;;;;;-3.36;87.27;101090.16;3509833;28;19928;-58
2020/12/22 01:53:29;;;;;;;;;;;;;;;-3.36;86.97;101082.53;3507800;28;20015;-58
2020/12/22 01:55:11;;;;;;;;;;;;;;;-3.37;86.98;101086.72;3510719;28;19924;-58
2020/12/22 01:56:53;;;;;;;;;;;;;;;-3.37;86.95;101076.56;3505510;28;19971;-40
2020/12/22 01:58:34;;;;;;;;;;;;;;;-3.36;87.10;101080.00;3508744;28;19929;-40
2020/12/22 02:00:15;;;;;;;;;;;;;;;-3.38;86.46;101073.16;3510253;28;19935;-41
2020/12/22 02:01:56;;;;;;;;;;;;;;;-3.37;86.44;101079.13;3507725;28;19928;-40
2020/12/22 02:03:37;;;;;;;;;;;;;;;-3.36;86.75;101077.47;3510142;28;20010;-40
2020/12/22 02:05:19;;;;;;;;;;;;;;;-3.37;86.38;101084.19;3506648;28;19963;-40
2020/12/22 02:07:00;;;;;;;;;;;;;;;-3.37;86.57;101081.66;3508426;28;19924;-40
2020/12/22 02:08:41;;;;;;;;;;;;;;;-3.36;86.35;101072.38;3510538;28;20013;-41
2020/12/22 02:10:23;;;;;;;;;;;;;;;-3.36;86.66;101068.19;3508357;28;19977;-58
2020/12/22 02:12:05;;;;;;;;;;;;;;;-3.35;86.76;101064.91;3506730;28;20385;-40
2020/12/22 02:13:46;;;;;;;;;;;;;;;-3.34;86.83;101068.34;3510422;28;19979;-58
2020/12/22 02:15:27;;;;;;;;;;;;;;;-3.33;86.74;101065.94;3508554;28;19975;-58
2020/12/22 02:17:09;;;;;;;;;;;;;;;-3.33;86.36;101060.00;3508334;28;19994;-58
2020/12/22 02:18:50;;;;;;;;;;;;;;;-3.35;86.04;101057.31;3509585;28;19924;-58
2020/12/22 02:20:32;;;;;;;;;;;;;;;-3.36;85.67;101059.69;3506560;28;19935;-58
2020/12/22 02:22:14;;;;;;;;;;;;;;;-3.37;85.92;101063.88;3510330;28;19931;-58
2020/12/22 02:23:56;;;;;;;;;;;;;;;-3.36;85.87;101067.31;3508019;28;19971;-58
2020/12/22 02:25:43;;;;;;;;;;;;;;;-3.36;86.27;101062.25;3507314;28;19972;-40
2020/12/22 02:27:24;;;;;;;;;;;;;;;-3.33;86.27;101062.53;3510575;28;19974;-40
2020/12/22 02:29:06;;;;;;;;;;;;;;;-3.31;86.23;101066.09;3507323;28;19928;-40
2020/12/22 02:30:47;;;;;;;;;;;;;;;-3.31;86.12;101059.34;3507985;28;19924;-41
2020/12/22 02:32:28;;;;;;;;;;;;;;;-3.30;85.47;101070.44;3510147;28;19923;-40
2020/12/22 02:34:10;;;;;;;;;;;;;;;-3.31;85.43;101064.44;3508131;28;20475;-40
2020/12/22 02:35:51;;;;;;;;;;;;;;;-3.30;85.51;101065.34;3510276;28;20406;-40
2020/12/22 02:37:32;;;;;;;;;;;;;;;-3.31;85.56;101063.56;3506995;28;19927;-57
2020/12/22 02:39:14;;;;;;;;;;;;;;;-3.32;85.66;101075.34;3505375;28;19977;-58
2020/12/22 02:40:55;;;;;;;;;;;;;;;-3.33;85.94;101063.41;3510274;28;19924;-40
2020/12/22 02:42:36;;;;;;;;;;;;;;;-3.31;85.93;101069.50;3505420;28;20407;-58
2020/12/22 02:44:17;;;;;;;;;;;;;;;-3.30;85.99;101068.78;3508554;28;19924;-57
2020/12/22 02:45:59;;;;;;;;;;;;;;;-3.31;85.59;101064.44;3510105;28;20569;-58
2020/12/22 02:47:40;;;;;;;;;;;;;;;-3.32;85.44;101070.28;3506841;28;19931;-58
2020/12/22 02:49:21;;;;;;;;;;;;;;;-3.32;85.73;101061.75;3508065;28;19978;-58
2020/12/22 02:51:03;;;;;;;;;;;;;;;-3.31;85.83;101064.44;3509446;28;19963;-57
2020/12/22 02:52:44;;;;;;;;;;;;;;;-3.30;86.02;101060.28;3506987;28;19928;-58
2020/12/22 02:54:25;;;;;;;;;;;;;;;-3.28;86.19;101064.72;3510172;28;19963;-58
2020/12/22 02:56:07;;;;;;;;;;;;;;;-3.26;86.12;101060.66;3508887;28;19975;-56
2020/12/22 02:57:48;;;;;;;;;;;;;;;-3.24;86.12;101063.34;3507587;28;20396;-40
2020/12/22 02:59:30;;;;;;;;;;;;;;;-3.26;85.79;101063.22;3509956;28;19924;-40
2020/12/22 03:01:11;;;;;;;;;;;;;;;-3.24;86.12;101066.78;3506097;28;20376;-40
2020/12/22 03:02:52;;;;;;;;;;;;;;;-3.24;86.13;101063.34;3504237;28;20348;-40
2020/12/22 03:04:33;;;;;;;;;;;;;;;-3.24;85.86;101058.28;3509550;28;19966;-40
2020/12/22 03:06:15;;;;;;;;;;;;;;;-3.23;86.18;101060.06;3508247;28;19924;-40
2020/12/22 03:07:56;;;;;;;;;;;;;;;-3.22;86.09;101056.75;3509920;28;19932;-58
2020/12/22 03:09:38;;;;;;;;;;;;;;;-3.20;86.11;101058.72;3507289;28;19924;-58
2020/12/22 03:11:19;;;;;;;;;;;;;;;-3.20;85.80;101061.25;3509144;28;20368;-41
2020/12/22 03:13:00;;;;;;;;;;;;;;;-3.22;85.35;101056.75;3510768;28;19966;-40
2020/12/22 03:14:41;;;;;;;;;;;;;;;-3.24;85.13;101051.56;3508322;28;20027;-40
2020/12/22 03:16:23;;;;;;;;;;;;;;;-3.26;85.69;101050.53;3508109;28;20057;-40
2020/12/22 03:18:05;;;;;;;;;;;;;;;-3.26;85.43;101047.09;3509987;28;20304;-41
2020/12/22 03:19:46;;;;;;;;;;;;;;;-3.27;85.74;101043.69;3506986;28;19971;-40
2020/12/22 03:21:28;;;;;;;;;;;;;;;-3.25;85.96;101037.09;3511010;28;19924;-39
2020/12/22 03:23:10;;;;;;;;;;;;;;;-3.22;86.04;101037.38;3508426;28;20032;-57
2020/12/22 03:24:51;;;;;;;;;;;;;;;-3.20;86.11;101038.41;3506838;28;20430;-57
2020/12/22 03:26:32;;;;;;;;;;;;;;;-3.17;86.29;101037.78;3510662;28;19924;-39
2020/12/22 03:28:14;;;;;;;;;;;;;;;-3.15;86.18;101037.91;3508327;28;19931;-40
2020/12/22 03:29:55;;;;;;;;;;;;;;;-3.12;86.25;101038.19;3507248;28;19970;-57
2020/12/22 03:31:36;;;;;;;;;;;;;;;-3.12;86.48;101040.75;3510310;28;19997;-57
2020/12/22 03:33:17;;;;;;;;;;;;;;;-3.11;86.31;101040.88;3507026;28;19931;-58
2020/12/22 03:34:58;;;;;;;;;;;;;;;-3.09;86.12;101043.56;3510237;28;20380;-58
2020/12/22 03:36:39;;;;;;;;;;;;;;;-3.11;85.74;101047.59;3508498;28;20023;-58
2020/12/22 03:38:21;;;;;;;;;;;;;;;-3.13;85.69;101041.47;3508134;28;19943;-40
2020/12/22 03:40:04;;;;;;;;;;;;;;;-3.15;85.91;101045.53;3510237;28;20444;-58
2020/12/22 03:41:45;;;;;;;;;;;;;;;-3.18;85.68;101043.63;3505195;28;19924;-58
2020/12/22 03:43:26;;;;;;;;;;;;;;;-3.20;86.13;101048.56;3506900;28;19928;-58
2020/12/22 03:45:08;;;;;;;;;;;;;;;-3.21;86.08;101045.88;3509371;28;19924;-57
2020/12/22 03:46:50;;;;;;;;;;;;;;;-3.21;86.45;101054.38;3507770;28;19974;-57
2020/12/22 03:48:31;;;;;;;;;;;;;;;-3.19;86.65;101050.31;3509573;28;20359;-58
2020/12/22 03:50:12;;;;;;;;;;;;;;;-3.20;86.29;101047.63;3507367;28;19967;-58
2020/12/22 03:51:54;;;;;;;;;;;;;;;-3.21;86.28;101044.22;3507608;28;20412;-58
2020/12/22 03:53:36;;;;;;;;;;;;;;;-3.21;86.19;101045.88;3509736;28;20394;-58
2020/12/22 03:55:17;;;;;;;;;;;;;;;-3.21;86.25;101048.41;3507959;28;20392;-58
2020/12/22 03:56:58;;;;;;;;;;;;;;;-3.23;86.54;101038.13;3507368;28;19978;-40
2020/12/22 03:58:39;;;;;;;;;;;;;;;-3.21;86.41;101040.81;3509913;28;19966;-40
2020/12/22 04:00:20;;;;;;;;;;;;;;;-3.23;86.17;101034.69;3507592;28;20364;-40
2020/12/22 04:02:02;;;;;;;;;;;;;;;-3.23;85.93;101043.19;3509178;28;19935;-40
2020/12/22 04:03:44;;;;;;;;;;;;;;;-3.25;85.94;101038.75;3508131;28;19967;-57
2020/12/22 04:05:25;;;;;;;;;;;;;;;-3.24;86.33;101041.41;3507748;28;19962;-57
2020/12/22 04:07:06;;;;;;;;;;;;;;;-3.23;86.66;101039.78;3509472;28;19988;-56
2020/12/22 04:08:51;;;;;;;;;;;;;;;-3.22;86.37;101036.47;3507546;28;20371;-57
2020/12/22 04:10:32;;;;;;;;;;;;;;;-3.22;86.30;101039.91;3507886;28;19977;-40
2020/12/22 04:12:13;;;;;;;;;;;;;;;-3.21;86.25;101033.19;3509475;28;19924;-40
2020/12/22 04:13:55;;;;;;;;;;;;;;;-3.21;86.13;101036.59;3507935;28;19924;-40
2020/12/22 04:15:36;;;;;;;;;;;;;;;-3.22;85.88;101039.00;3508994;28;20396;-40
2020/12/22 04:17:18;;;;;;;;;;;;;;;-3.25;85.91;101042.16;3507968;28;20442;-40
2020/12/22 04:18:59;;;;;;;;;;;;;;;-3.26;85.99;101042.03;3507957;28;19932;-40
2020/12/22 04:20:40;;;;;;;;;;;;;;;-3.28;85.92;101046.97;3509889;28;20409;-40
2020/12/22 04:22:21;;;;;;;;;;;;;;;-3.28;86.28;101044.41;3506732;28;20057;-58
2020/12/22 04:24:04;;;;;;;;;;;;;;;-3.29;85.73;101046.81;3508134;28;20023;-58
2020/12/22 04:25:45;;;;;;;;;;;;;;;-3.29;85.96;101045.19;3509908;28;19963;-40
2020/12/22 04:27:26;;;;;;;;;;;;;;;-3.30;85.71;101045.06;3506301;28;19975;-40
2020/12/22 04:29:07;;;;;;;;;;;;;;;-3.31;85.79;101041.59;3509638;28;19958;-40
2020/12/22 04:30:49;;;;;;;;;;;;;;;-3.31;85.91;101043.25;3508432;28;19966;-40
2020/12/22 04:32:30;;;;;;;;;;;;;;;-3.32;86.03;101044.91;3507880;28;20101;-40
2020/12/22 04:34:12;;;;;;;;;;;;;;;-3.31;86.27;101044.13;3509976;28;20014;-40
2020/12/22 04:35:53;;;;;;;;;;;;;;;-3.32;85.78;101036.38;3506413;28;19974;-40
2020/12/22 04:37:34;;;;;;;;;;;;;;;-3.32;85.99;101033.84;3508015;28;20392;-40
2020/12/22 04:39:16;;;;;;;;;;;;;;;-3.32;86.19;101036.38;3509896;28;20443;-40
2020/12/22 04:40:57;;;;;;;;;;;;;;;-3.32;85.86;101037.28;3508438;28;20439;-41
2020/12/22 04:42:38;;;;;;;;;;;;;;;-3.32;86.12;101031.31;3510452;28;19981;-58
2020/12/22 04:44:19;;;;;;;;;;;;;;;-3.30;86.00;101032.38;3510702;28;20010;-58
2020/12/22 04:46:03;;;;;;;;;;;;;;;-3.30;86.04;101030.72;3510172;28;20011;-57
2020/12/22 04:47:46;;;;;;;;;;;;;;;-3.30;85.71;101025.63;3512247;28;20064;-58
2020/12/22 04:49:30;;;;;;;;;;;;;;;-3.31;86.23;101028.03;3508962;28;19973;-57
2020/12/22 04:51:12;;;;;;;;;;;;;;;-3.31;86.20;101031.44;3510199;28;20402;-57
2020/12/22 04:53:11;;;;;;;;;;;;;;;-3.30;86.19;101029.81;3511936;28;20348;-40
2020/12/22 04:54:53;;;;;;;;;;;;;;;-3.31;85.86;101026.38;3509830;28;20024;-40
2020/12/22 04:56:36;;;;;;;;;;;;;;;-3.32;85.74;101027.16;3510207;28;19956;-40
2020/12/22 04:58:17;;;;;;;;;;;;;;;-3.34;85.74;101017.59;3498459;28;20156;-40
2020/12/22 04:59:58;;;;;;;;;;;;;;;-3.37;85.75;101023.31;3506698;28;19975;-58
2020/12/22 05:01:40;;;;;;;;;;;;;;;-3.39;85.84;101022.28;3510213;28;20018;-58
2020/12/22 05:03:22;;;;;;;;;;;;;;;-3.41;85.98;101029.75;3511348;28;19955;-58
2020/12/22 05:05:03;;;;;;;;;;;;;;;-3.41;86.09;101031.41;3503698;28;19939;-58
2020/12/22 05:06:44;;;;;;;;;;;;;;;-3.43;85.82;101028.72;3512171;28;19924;-55
2020/12/22 05:08:25;;;;;;;;;;;;;;;-3.45;86.06;101021.69;3509870;28;19962;-58
2020/12/22 05:10:08;;;;;;;;;;;;;;;-3.47;85.88;101026.63;3504921;28;20359;-57
2020/12/22 05:11:49;;;;;;;;;;;;;;;-3.47;86.15;101024.09;3511691;28;20335;-57
2020/12/22 05:13:30;;;;;;;;;;;;;;;-3.49;86.22;101015.47;3509887;28;19959;-57
2020/12/22 05:15:11;;;;;;;;;;;;;;;-3.49;86.18;101020.53;3509038;28;19955;-40
2020/12/22 05:16:53;;;;;;;;;;;;;;;-3.50;86.32;101023.84;3510559;28;19924;-40
2020/12/22 05:18:35;;;;;;;;;;;;;;;-3.49;86.40;101019.66;3508263;28;20415;-40
2020/12/22 05:20:31;;;;;;;;;;;;;;;-3.49;86.78;101024.72;3499841;28;19947;-40
2020/12/22 05:22:12;;;;;;;;;;;;;;;-3.49;86.64;101019.66;3510624;28;19939;-40
2020/12/22 05:23:54;;;;;;;;;;;;;;;-3.47;86.86;101024.09;3507924;28;19955;-40
2020/12/22 05:25:36;;;;;;;;;;;;;;;-3.46;86.91;101022.47;3511901;28;19990;-40
2020/12/22 05:27:19;;;;;;;;;;;;;;;-3.44;87.01;101023.50;3509786;28;19927;-40
2020/12/22 05:29:10;;;;;;;;;;;;;;;-3.43;87.06;101021.09;3509715;28;19960;-57
2020/12/22 05:30:51;;;;;;;;;;;;;;;-3.41;87.10;101018.72;3511384;28;19967;-57
2020/12/22 05:32:32;;;;;;;;;;;;;;;-3.41;87.01;101018.72;3508193;28;19962;-40
2020/12/22 05:34:14;;;;;;;;;;;;;;;-3.40;87.17;101021.34;3509745;28;19924;-40
2020/12/22 05:35:56;;;;;;;;;;;;;;;-3.38;87.02;101018.97;3510822;28;19963;-40
2020/12/22 05:37:38;;;;;;;;;;;;;;;-3.39;87.17;101018.09;3509455;28;19965;-40
2020/12/22 05:39:19;;;;;;;;;;;;;;;-3.37;87.11;101025.84;3511124;28;19974;-40
2020/12/22 05:41:03;;;;;;;;;;;;;;;-3.36;87.00;101026.72;3511285;28;19970;-42
2020/12/22 05:42:45;;;;;;;;;;;;;;;-3.39;87.00;101025.69;3506844;28;19963;-57
2020/12/22 05:44:26;;;;;;;;;;;;;;;-3.37;86.82;101020.75;3511979;28;19966;-40
2020/12/22 05:46:08;;;;;;;;;;;;;;;-3.37;87.05;101025.84;3509073;28;19950;-40
2020/12/22 05:47:52;;;;;;;;;;;;;;;-3.36;86.77;101021.66;3509321;28;20270;-40
2020/12/22 05:49:33;;;;;;;;;;;;;;;-3.37;87.00;101020.75;3497463;28;19928;-40
2020/12/22 05:51:14;;;;;;;;;;;;;;;-3.38;86.63;101019.88;3505528;28;19955;-40
2020/12/22 05:52:57;;;;;;;;;;;;;;;-3.39;86.98;101020.63;3510445;28;19977;-41
2020/12/22 05:54:44;;;;;;;;;;;;;;;-3.40;86.84;101016.28;3510821;28;19924;-40
2020/12/22 05:56:27;;;;;;;;;;;;;;;-3.42;86.80;101014.38;3509071;28;19939;-41
2020/12/22 05:58:09;;;;;;;;;;;;;;;-3.41;86.89;101013.63;3509954;28;19931;-42
2020/12/22 05:59:50;;;;;;;;;;;;;;;-3.41;86.70;101011.09;3509182;28;19924;-42
2020/12/22 06:01:32;;;;;;;;;;;;;;;-3.44;86.81;101006.63;3505869;28;19934;-42
2020/12/22 06:03:14;;;;;;;;;;;;;;;-3.44;86.89;101018.44;3510834;28;19928;-42
2020/12/22 06:04:57;;;;;;;;;;;;;;;-3.45;87.13;101017.50;3508534;28;20387;-43
2020/12/22 06:06:38;;;;;;;;;;;;;;;-3.45;87.32;101009.91;3507910;28;19967;-42
2020/12/22 06:08:19;;;;;;;;;;;;;;;-3.45;87.26;101012.44;3509954;28;20391;-42
2020/12/22 06:10:00;;;;;;;;;;;;;;;-3.44;86.96;101014.22;3509004;28;19966;-40
2020/12/22 06:11:42;;;;;;;;;;;;;;;-3.44;87.30;101011.69;3510004;28;19975;-42
2020/12/22 06:13:24;;;;;;;;;;;;;;;-3.44;87.04;101006.63;3510290;28;19927;-57
2020/12/22 06:15:05;;;;;;;;;;;;;;;-3.42;87.17;101011.84;3509107;28;19971;-58
2020/12/22 06:16:46;;;;;;;;;;;;;;;-3.40;87.41;101005.25;3510167;28;20331;-59
2020/12/22 06:18:28;;;;;;;;;;;;;;;-3.39;87.38;101004.50;3506780;28;20332;-41
2020/12/22 06:20:10;;;;;;;;;;;;;;;-3.38;87.36;101002.13;3507698;28;19970;-42
2020/12/22 06:21:56;;;;;;;;;;;;;;;-3.37;87.19;101000.47;3509452;28;19974;-42
2020/12/22 06:23:38;;;;;;;;;;;;;;;-3.36;87.29;100998.81;3507810;28;19973;-42
2020/12/22 06:25:20;;;;;;;;;;;;;;;-3.38;87.20;100997.06;3507400;28;19960;-42
2020/12/22 06:27:02;;;;;;;;;;;;;;;-3.37;87.21;101003.00;3508718;28;19963;-57
2020/12/22 06:28:43;;;;;;;;;;;;;;;-3.36;87.37;100999.69;3506141;28;19978;-57
2020/12/22 06:30:34;;;;;;;;;;;;;;;-3.33;87.38;100999.97;3509956;28;19974;-40
2020/12/22 06:32:24;;;;;;;;;;;;;;;-3.32;87.41;100999.25;3508717;28;20351;-41
2020/12/22 06:34:22;;;;;;;;;;;;;;;-3.29;87.40;101002.06;3508282;28;19978;-57
2020/12/22 06:36:05;;;;;;;;;;;;;;;-3.28;87.38;100993.69;3510709;28;20361;-40
2020/12/22 06:37:47;;;;;;;;;;;;;;;-3.27;87.59;100995.47;3509835;28;20014;-40
2020/12/22 06:39:41;;;;;;;;;;;;;;;-3.24;87.47;100993.19;3508801;28;19924;-57
2020/12/22 06:41:49;;;;;;;;;;;;;;;-3.21;87.81;100998.53;3510280;28;19960;-58
2020/12/22 06:43:40;;;;;;;;;;;;;;;-3.18;87.41;101000.47;3510903;28;19977;-57
2020/12/22 06:45:22;;;;;;;;;;;;;;;-3.16;87.53;101003.13;3509062;28;19963;-40
2020/12/22 06:47:04;;;;;;;;;;;;;;;-3.16;87.08;100992.97;3498365;28;20458;-40
2020/12/22 06:48:46;;;;;;;;;;;;;;;-3.16;87.20;100993.91;3510687;28;19931;-58
2020/12/22 06:50:37;;;;;;;;;;;;;;;-3.16;87.25;100991.34;3508558;28;19935;-57
2020/12/22 06:52:35;;;;;;;;;;;;;;;-3.15;87.10;100987.16;3509898;28;19970;-58
2020/12/22 06:54:32;;;;;;;;;;;;;;;-3.16;87.24;100985.38;3509146;28;20330;-40
2020/12/22 06:56:13;;;;;;;;;;;;;;;-3.18;87.07;100980.19;3505508;28;19931;-40
2020/12/22 06:57:55;;;;;;;;;;;;;;;-3.18;87.28;100982.72;3507886;28;19924;-40
2020/12/22 06:59:49;;;;;;;;;;;;;;;-3.17;87.29;100981.06;3509519;28;19959;-40
2020/12/22 07:01:31;;;;;;;;;;;;;;;-3.15;87.30;100984.63;3507449;28;19973;-40
2020/12/22 07:03:13;;;;;;;;;;;;;;;-3.15;87.31;100980.44;3506967;28;20446;-40
2020/12/22 07:04:55;;;;;;;;;;;;;;;-3.14;87.50;100976.28;3508524;28;20384;-40
2020/12/22 07:06:42;;;;;;;;;;;;;;;-3.14;87.55;100977.16;3507527;28;19963;-40
2020/12/22 07:08:23;;;;;;;;;;;;;;;-3.12;87.76;100978.19;3507841;28;20292;-40
2020/12/22 07:10:06;;;;;;;;;;;;;;;-3.09;88.12;100969.97;3508008;28;19974;-40
2020/12/22 07:11:48;;;;;;;;;;;;;;;-3.08;88.16;100970.06;3506695;28;19959;-41
2020/12/22 07:13:29;;;;;;;;;;;;;;;-3.07;88.11;100963.38;3510822;28;19993;-58
2020/12/22 07:15:12;;;;;;;;;;;;;;;-3.06;87.83;100967.66;3508585;28;20343;-58
2020/12/22 07:16:54;;;;;;;;;;;;;;;-3.06;87.58;100966.03;3508641;28;19923;-40
2020/12/22 07:18:40;;;;;;;;;;;;;;;-3.06;87.83;100966.03;3510526;28;19974;-40
2020/12/22 07:20:21;;;;;;;;;;;;;;;-3.05;88.11;100964.38;3507211;28;19955;-40
2020/12/22 07:22:03;;;;;;;;;;;;;;;-3.03;88.13;100965.41;3508300;28;20320;-40
2020/12/22 07:23:45;;;;;;;;;;;;;;;-3.00;88.28;100961.50;3508680;28;20017;-40
2020/12/22 07:25:27;;;;;;;;;;;;;;;-2.98;88.24;100960.75;3507783;28;19925;-40
2020/12/22 07:27:09;;;;;;;;;;;;;;;-2.96;88.37;100959.22;3507474;28;19928;-40
2020/12/22 07:28:51;;;;;;;;;;;;;;;-2.93;88.48;100962.94;3506750;28;19931;-40
2020/12/22 07:30:33;;;;;;;;;;;;;;;-2.92;88.42;100957.09;3506457;28;20879;-40
2020/12/22 07:32:17;;;;;;;;;;;;;;;-2.92;88.34;100949.47;3505548;28;20024;-40
2020/12/22 07:34:02;;;;;;;;;;;;;;;-2.92;88.19;100949.47;3505962;28;19927;-40
2020/12/22 07:35:43;;;;;;;;;;;;;;;-2.91;88.22;100943.66;3507068;28;19975;-40
2020/12/22 07:37:25;;;;;;;;;;;;;;;-2.91;87.98;100942.75;3508723;28;20072;-40
2020/12/22 07:39:10;;;;;;;;;;;;;;;-2.91;88.08;100940.22;3507302;28;20431;-40
2020/12/22 07:40:51;;;;;;;;;;;;;;;-2.91;88.37;100946.19;3506985;28;19924;-40
2020/12/22 07:42:32;;;;;;;;;;;;;;;-2.87;88.27;100942.25;3504642;28;19931;-40
2020/12/22 07:44:14;;;;;;;;;;;;;;;-2.86;88.33;100932.25;3507943;28;19975;-58
2020/12/22 07:45:56;;;;;;;;;;;;;;;-2.85;88.37;100934.03;3509874;28;19955;-57
2020/12/22 07:47:37;;;;;;;;;;;;;;;-2.83;88.26;100927.44;3508503;28;20305;-58
2020/12/22 07:49:19;;;;;;;;;;;;;;;-2.81;88.54;100930.13;3502501;28;19977;-58
2020/12/22 07:50:59;;;;;;;;;;;;;;;-2.78;88.29;100932.91;3510205;28;19927;-58
2020/12/22 07:52:41;;;;;;;;;;;;;;;-2.75;88.19;100935.72;3507701;28;19931;-58
2020/12/22 07:54:25;;;;;;;;;;;;;;;-2.73;88.14;100933.31;3508539;28;19955;-58
2020/12/22 07:56:07;;;;;;;;;;;;;;;-2.71;88.35;100944.50;3508968;28;20380;-58
2020/12/22 07:57:49;;;;;;;;;;;;;;;-2.68;88.13;100942.22;3506585;28;19928;-58
2020/12/22 07:59:30;;;;;;;;;;;;;;;-2.67;88.31;100944.91;3510091;28;20479;-58
2020/12/22 08:01:12;;;;;;;;;;;;;;;-2.64;88.21;100950.22;3507982;28;19959;-58
2020/12/22 08:02:53;;;;;;;;;;;;;;;-2.62;88.15;100945.28;3507965;28;19966;-58
2020/12/22 08:04:34;;;;;;;;;;;;;;;-2.63;87.93;100936.78;3509938;28;19924;-58
2020/12/22 08:06:15;;;;;;;;;;;;;;;-2.62;87.92;100930.03;3508249;28;19924;-58
2020/12/22 08:07:56;;;;;;;;;;;;;;;-2.62;87.78;100930.03;3508361;28;19985;-58
2020/12/22 08:09:39;;;;;;;;;;;;;;;-2.62;87.81;100933.50;3509142;28;19982;-58
2020/12/22 08:11:23;;;;;;;;;;;;;;;-2.59;87.93;100934.50;3505322;28;19924;-58
2020/12/22 08:13:05;;;;;;;;;;;;;;;-2.59;87.90;100932.84;3510149;28;19959;-58
2020/12/22 08:14:47;;;;;;;;;;;;;;;-2.57;88.04;100933.00;3507989;28;19986;-58
2020/12/22 08:16:32;;;;;;;;;;;;;;;-2.56;88.01;100939.88;3510378;28;19924;-58
2020/12/22 08:18:13;;;;;;;;;;;;;;;-2.55;88.17;100934.88;3512595;28;19971;-58
2020/12/22 08:20:00;;;;;;;;;;;;;;;-2.54;87.92;100936.69;3510208;28;19939;-57
2020/12/22 08:21:42;;;;;;;;;;;;;;;-2.51;87.97;100936.03;3508790;28;20400;-58
2020/12/22 08:23:23;;;;;;;;;;;;;;;-2.51;87.86;100936.03;3512394;28;19931;-57
2020/12/22 08:25:05;;;;;;;;;;;;;;;-2.50;87.95;100927.66;3508726;28;19924;-57
2020/12/22 08:26:47;;;;;;;;;;;;;;;-2.49;87.82;100924.38;3511482;28;19970;-57
2020/12/22 08:28:31;;;;;;;;;;;;;;;-2.49;87.95;100919.31;3510869;28;20273;-57
2020/12/22 08:30:18;;;;;;;;;;;;;;;-2.45;88.28;100917.13;3510023;28;19973;-59
2020/12/22 08:32:01;;;;;;;;;;;;;;;-2.43;88.16;100910.53;3511978;28;19966;-57
2020/12/22 08:33:42;;;;;;;;;;;;;;;-2.38;88.22;100908.41;3509790;28;19923;-57
2020/12/22 08:35:24;;;;;;;;;;;;;;;-2.34;88.46;100907.00;3508303;28;19953;-57
2020/12/22 08:37:09;;;;;;;;;;;;;;;-2.29;88.41;100906.63;3512080;28;20308;-57
2020/12/22 08:38:50;;;;;;;;;;;;;;;-2.25;88.44;100911.22;3509776;28;19984;-58
2020/12/22 08:40:32;;;;;;;;;;;;;;;-2.22;88.18;100909.69;3506524;28;20015;-58
2020/12/22 08:42:13;;;;;;;;;;;;;;;-2.19;88.16;100907.41;3508776;28;19967;-57
2020/12/22 08:43:55;;;;;;;;;;;;;;;-2.19;87.85;100900.69;3509807;28;19964;-59